sensor_id;sensor_type;location;lat;lon;timestamp;pressure;altitude;pressure_sealevel;temperature;humidity
63808;BME280;49961;43.970;22.868;2022-08-19T00:00:29;100851.19;;;24.67;100.00
63808;BME280;49961;43.970;22.868;2022-08-19T00:01:31;100850.38;;;24.72;100.00
63808;BME280;49961;43.970;22.868;2022-08-19T00:02:31;100847.81;;;24.74;100.00
63808;BME280;49961;43.970;22.868;2022-08-19T00:03:32;100849.34;;;24.75;100.00
63808;BME280;49961;43.970;22.868;2022-08-19T00:04:34;100844.69;;;24.78;100.00
63808;BME280;49961;43.970;22.868;2022-08-19T00:05:36;100841.34;;;24.79;100.00
63808;BME280;49961;43.970;22.868;2022-08-19T00:06:39;100852.66;;;24.79;100.00
63808;BME280;49961;43.970;22.868;2022-08-19T00:07:42;100845.19;;;24.82;100.00
63808;BME280;49961;43.970;22.868;2022-08-19T00:08:43;100842.34;;;24.82;100.00
63808;BME280;49961;43.970;22.868;2022-08-19T00:09:43;100842.59;;;24.78;100.00
63808;BME280;49961;43.970;22.868;2022-08-19T00:10:44;100858.34;;;24.79;100.00
63808;BME280;49961;43.970;22.868;2022-08-19T00:11:46;100848.53;;;24.80;100.00
63808;BME280;49961;43.970;22.868;2022-08-19T00:12:47;100851.38;;;24.80;100.00
63808;BME280;49961;43.970;22.868;2022-08-19T00:13:48;100782.78;;;24.41;100.00
63808;BME280;49961;43.970;22.868;2022-08-19T00:14:50;100838.22;;;24.77;100.00
63808;BME280;49961;43.970;22.868;2022-08-19T00:15:50;100841.03;;;24.83;100.00
63808;BME280;49961;43.970;22.868;2022-08-19T00:16:53;100796.41;;;24.48;100.00
63808;BME280;49961;43.970;22.868;2022-08-19T00:17:54;100844.41;;;24.81;100.00
63808;BME280;49961;43.970;22.868;2022-08-19T00:18:55;100843.88;;;24.83;100.00
63808;BME280;49961;43.970;22.868;2022-08-19T00:19:55;100843.34;;;24.84;100.00
63808;BME280;49961;43.970;22.868;2022-08-19T00:20:56;100843.59;;;24.86;100.00
63808;BME280;49961;43.970;22.868;2022-08-19T00:21:56;100844.91;;;24.85;100.00
63808;BME280;49961;43.970;22.868;2022-08-19T00:22:57;100837.94;;;24.81;100.00
63808;BME280;49961;43.970;22.868;2022-08-19T00:23:58;100841.34;;;24.79;100.00
63808;BME280;49961;43.970;22.868;2022-08-19T00:24:59;100839.00;;;24.78;100.00
63808;BME280;49961;43.970;22.868;2022-08-19T00:25:59;100837.22;;;24.75;100.00
63808;BME280;49961;43.970;22.868;2022-08-19T00:27:00;100813.88;;;24.58;100.00
63808;BME280;49961;43.970;22.868;2022-08-19T00:28:02;100753.34;;;24.15;100.00
63808;BME280;49961;43.970;22.868;2022-08-19T00:29:05;100833.66;;;24.69;100.00
63808;BME280;49961;43.970;22.868;2022-08-19T00:30:07;100837.78;;;24.68;100.00
63808;BME280;49961;43.970;22.868;2022-08-19T00:31:08;100834.72;;;24.66;100.00
63808;BME280;49961;43.970;22.868;2022-08-19T00:32:09;100834.22;;;24.56;100.00
63808;BME280;49961;43.970;22.868;2022-08-19T00:33:10;100735.44;;;23.85;100.00
63808;BME280;49961;43.970;22.868;2022-08-19T00:34:12;100845.91;;;24.42;100.00
63808;BME280;49961;43.970;22.868;2022-08-19T00:35:13;100849.47;;;24.42;100.00
63808;BME280;49961;43.970;22.868;2022-08-19T00:36:13;100848.22;;;24.43;100.00
63808;BME280;49961;43.970;22.868;2022-08-19T00:37:13;100854.63;;;24.44;100.00
63808;BME280;49961;43.970;22.868;2022-08-19T00:38:14;100833.03;;;24.35;100.00
63808;BME280;49961;43.970;22.868;2022-08-19T00:39:15;100854.88;;;24.46;100.00
63808;BME280;49961;43.970;22.868;2022-08-19T00:40:17;100798.94;;;24.06;100.00
63808;BME280;49961;43.970;22.868;2022-08-19T00:41:20;100847.19;;;24.41;100.00
63808;BME280;49961;43.970;22.868;2022-08-19T00:42:22;100847.44;;;24.37;100.00
63808;BME280;49961;43.970;22.868;2022-08-19T00:43:24;100847.25;;;24.24;100.00
63808;BME280;49961;43.970;22.868;2022-08-19T00:44:28;100846.97;;;24.33;100.00
63808;BME280;49961;43.970;22.868;2022-08-19T00:45:29;100831.84;;;24.14;100.00
63808;BME280;49961;43.970;22.868;2022-08-19T00:46:33;100848.78;;;24.25;100.00
63808;BME280;49961;43.970;22.868;2022-08-19T00:47:36;100852.69;;;24.22;100.00
63808;BME280;49961;43.970;22.868;2022-08-19T00:48:36;100853.44;;;24.23;100.00
63808;BME280;49961;43.970;22.868;2022-08-19T00:49:42;100852.69;;;24.22;100.00
63808;BME280;49961;43.970;22.868;2022-08-19T00:50:47;100854.50;;;24.20;100.00
63808;BME280;49961;43.970;22.868;2022-08-19T00:51:53;100845.72;;;24.18;100.00
63808;BME280;49961;43.970;22.868;2022-08-19T00:52:54;100846.53;;;24.13;100.00
63808;BME280;49961;43.970;22.868;2022-08-19T00:53:56;100855.28;;;24.09;100.00
63808;BME280;49961;43.970;22.868;2022-08-19T00:54:58;100834.78;;;23.92;100.00
63808;BME280;49961;43.970;22.868;2022-08-19T00:55:59;100851.22;;;23.99;100.00
63808;BME280;49961;43.970;22.868;2022-08-19T00:57:02;100862.81;;;23.96;100.00
63808;BME280;49961;43.970;22.868;2022-08-19T00:58:12;100862.81;;;23.96;100.00
63808;BME280;49961;43.970;22.868;2022-08-19T00:59:14;100868.47;;;23.96;100.00
63808;BME280;49961;43.970;22.868;2022-08-19T01:00:18;100859.72;;;23.83;100.00
63808;BME280;49961;43.970;22.868;2022-08-19T01:01:19;100870.00;;;23.86;100.00
63808;BME280;49961;43.970;22.868;2022-08-19T01:02:19;100866.94;;;23.78;100.00
63808;BME280;49961;43.970;22.868;2022-08-19T01:03:21;100865.13;;;23.75;100.00
63808;BME280;49961;43.970;22.868;2022-08-19T01:04:21;100862.84;;;23.74;100.00
63808;BME280;49961;43.970;22.868;2022-08-19T01:05:25;100872.34;;;23.71;100.00
63808;BME280;49961;43.970;22.868;2022-08-19T01:06:27;100863.06;;;23.70;100.00
63808;BME280;49961;43.970;22.868;2022-08-19T01:07:28;100856.66;;;23.64;100.00
63808;BME280;49961;43.970;22.868;2022-08-19T01:08:28;100860.28;;;23.65;100.00
63808;BME280;49961;43.970;22.868;2022-08-19T01:09:29;100860.50;;;23.67;100.00
63808;BME280;49961;43.970;22.868;2022-08-19T01:10:35;100862.06;;;23.68;100.00
63808;BME280;49961;43.970;22.868;2022-08-19T01:11:41;100860.00;;;23.68;100.00
63808;BME280;49961;43.970;22.868;2022-08-19T01:12:43;100860.78;;;23.69;100.00
63808;BME280;49961;43.970;22.868;2022-08-19T01:13:44;100859.75;;;23.66;100.00
63808;BME280;49961;43.970;22.868;2022-08-19T01:14:46;100859.50;;;23.70;100.00
63808;BME280;49961;43.970;22.868;2022-08-19T01:15:52;100853.84;;;23.70;100.00
63808;BME280;49961;43.970;22.868;2022-08-19T01:16:54;100867.97;;;23.70;100.00
63808;BME280;49961;43.970;22.868;2022-08-19T01:17:59;100813.78;;;23.33;100.00
63808;BME280;49961;43.970;22.868;2022-08-19T01:19:01;100861.03;;;23.65;100.00
63808;BME280;49961;43.970;22.868;2022-08-19T01:20:04;100880.59;;;23.63;100.00
63808;BME280;49961;43.970;22.868;2022-08-19T01:21:10;100846.63;;;23.58;100.00
63808;BME280;49961;43.970;22.868;2022-08-19T01:22:36;100853.59;;;23.62;100.00
63808;BME280;49961;43.970;22.868;2022-08-19T01:23:40;100852.28;;;23.63;100.00
63808;BME280;49961;43.970;22.868;2022-08-19T01:24:43;100849.19;;;23.67;100.00
63808;BME280;49961;43.970;22.868;2022-08-19T01:25:48;100855.38;;;23.71;100.00
63808;BME280;49961;43.970;22.868;2022-08-19T01:26:52;100764.16;;;23.15;100.00
63808;BME280;49961;43.970;22.868;2022-08-19T01:27:53;100850.50;;;23.71;100.00
63808;BME280;49961;43.970;22.868;2022-08-19T01:28:57;100860.00;;;23.68;100.00
63808;BME280;49961;43.970;22.868;2022-08-19T01:29:58;100857.16;;;23.68;100.00
63808;BME280;49961;43.970;22.868;2022-08-19T01:30:59;100853.06;;;23.69;100.00
63808;BME280;49961;43.970;22.868;2022-08-19T01:32:00;100850.50;;;23.71;100.00
63808;BME280;49961;43.970;22.868;2022-08-19T01:33:02;100863.59;;;23.74;100.00
63808;BME280;49961;43.970;22.868;2022-08-19T01:34:06;100855.09;;;23.74;100.00
63808;BME280;49961;43.970;22.868;2022-08-19T01:35:07;100855.38;;;23.76;100.00
63808;BME280;49961;43.970;22.868;2022-08-19T01:36:14;100852.78;;;23.73;100.00
63808;BME280;49961;43.970;22.868;2022-08-19T01:37:15;100889.06;;;23.74;100.00
63808;BME280;49961;43.970;22.868;2022-08-19T01:38:22;100792.44;;;23.26;100.00
63808;BME280;49961;43.970;22.868;2022-08-19T01:39:24;100861.53;;;23.75;100.00
63808;BME280;49961;43.970;22.868;2022-08-19T01:40:30;100859.72;;;23.72;100.00
63808;BME280;49961;43.970;22.868;2022-08-19T01:41:32;100857.69;;;23.72;100.00
63808;BME280;49961;43.970;22.868;2022-08-19T01:42:32;100861.03;;;23.71;100.00
63808;BME280;49961;43.970;22.868;2022-08-19T01:43:33;100856.94;;;23.66;100.00
63808;BME280;49961;43.970;22.868;2022-08-19T01:44:34;100828.66;;;23.44;100.00
63808;BME280;49961;43.970;22.868;2022-08-19T01:45:37;100861.03;;;23.71;100.00
63808;BME280;49961;43.970;22.868;2022-08-19T01:46:42;100834.56;;;23.57;100.00
63808;BME280;49961;43.970;22.868;2022-08-19T01:47:42;100846.63;;;23.74;100.00
63808;BME280;49961;43.970;22.868;2022-08-19T01:48:44;100792.94;;;23.36;100.00
63808;BME280;49961;43.970;22.868;2022-08-19T01:49:44;100838.66;;;23.67;100.00
63808;BME280;49961;43.970;22.868;2022-08-19T01:50:45;100857.41;;;23.81;100.00
63808;BME280;49961;43.970;22.868;2022-08-19T01:51:47;100711.22;;;22.88;100.00
63808;BME280;49961;43.970;22.868;2022-08-19T01:52:49;100852.53;;;23.76;100.00
63808;BME280;49961;43.970;22.868;2022-08-19T01:53:51;100850.47;;;23.77;100.00
63808;BME280;49961;43.970;22.868;2022-08-19T01:54:51;100763.63;;;23.11;100.00
63808;BME280;49961;43.970;22.868;2022-08-19T01:55:52;100853.84;;;23.64;100.00
63808;BME280;49961;43.970;22.868;2022-08-19T01:56:56;100844.31;;;23.67;100.00
63808;BME280;49961;43.970;22.868;2022-08-19T01:58:00;100847.13;;;23.73;100.00
63808;BME280;49961;43.970;22.868;2022-08-19T01:59:05;100853.56;;;23.73;100.00
63808;BME280;49961;43.970;22.868;2022-08-19T02:00:12;100850.97;;;23.75;100.00
63808;BME280;49961;43.970;22.868;2022-08-19T02:01:14;100859.47;;;23.75;100.00
63808;BME280;49961;43.970;22.868;2022-08-19T02:02:14;100860.25;;;23.76;100.00
63808;BME280;49961;43.970;22.868;2022-08-19T02:03:15;100844.84;;;23.71;100.00
63808;BME280;49961;43.970;22.868;2022-08-19T02:04:16;100806.31;;;23.46;100.00
63808;BME280;49961;43.970;22.868;2022-08-19T02:05:17;100860.25;;;23.81;100.00
63808;BME280;49961;43.970;22.868;2022-08-19T02:06:19;100844.06;;;23.71;100.00
63808;BME280;49961;43.970;22.868;2022-08-19T02:07:20;100839.97;;;23.66;100.00
63808;BME280;49961;43.970;22.868;2022-08-19T02:08:24;100851.25;;;23.72;100.00
63808;BME280;49961;43.970;22.868;2022-08-19T02:09:24;100859.50;;;23.64;100.00
63808;BME280;49961;43.970;22.868;2022-08-19T02:10:25;100859.25;;;23.62;100.00
63808;BME280;49961;43.970;22.868;2022-08-19T02:11:29;100831.47;;;23.44;100.00
63808;BME280;49961;43.970;22.868;2022-08-19T02:12:31;100844.38;;;23.45;100.00
63808;BME280;49961;43.970;22.868;2022-08-19T02:13:32;100864.66;;;23.49;100.00
63808;BME280;49961;43.970;22.868;2022-08-19T02:14:35;100832.78;;;23.27;100.00
63808;BME280;49961;43.970;22.868;2022-08-19T02:15:35;100859.50;;;23.53;100.00
63808;BME280;49961;43.970;22.868;2022-08-19T02:16:37;100858.25;;;23.49;100.00
63808;BME280;49961;43.970;22.868;2022-08-19T02:17:39;100853.09;;;23.47;100.00
63808;BME280;49961;43.970;22.868;2022-08-19T02:18:40;100847.44;;;23.36;100.00
63808;BME280;49961;43.970;22.868;2022-08-19T02:19:40;100855.94;;;23.36;100.00
63808;BME280;49961;43.970;22.868;2022-08-19T02:20:41;100851.56;;;23.30;100.00
63808;BME280;49961;43.970;22.868;2022-08-19T02:21:43;100861.31;;;23.23;100.00
63808;BME280;49961;43.970;22.868;2022-08-19T02:22:44;100841.75;;;23.09;100.00
63808;BME280;49961;43.970;22.868;2022-08-19T02:23:45;100868.25;;;23.22;100.00
63808;BME280;49961;43.970;22.868;2022-08-19T02:24:46;100865.44;;;23.28;100.00
63808;BME280;49961;43.970;22.868;2022-08-19T02:25:48;100859.03;;;23.33;100.00
63808;BME280;49961;43.970;22.868;2022-08-19T02:26:49;100865.44;;;23.33;100.00
63808;BME280;49961;43.970;22.868;2022-08-19T02:27:49;100872.13;;;23.30;100.00
63808;BME280;49961;43.970;22.868;2022-08-19T02:28:50;100874.19;;;23.30;100.00
63808;BME280;49961;43.970;22.868;2022-08-19T02:29:51;100870.84;;;23.31;100.00
63808;BME280;49961;43.970;22.868;2022-08-19T02:30:52;100778.53;;;22.73;100.00
63808;BME280;49961;43.970;22.868;2022-08-19T02:31:52;100872.38;;;23.32;100.00
63808;BME280;49961;43.970;22.868;2022-08-19T02:32:52;100876.22;;;23.35;100.00
63808;BME280;49961;43.970;22.868;2022-08-19T02:33:54;100876.25;;;23.40;100.00
63808;BME280;49961;43.970;22.868;2022-08-19T02:34:55;100878.81;;;23.44;100.00
63808;BME280;49961;43.970;22.868;2022-08-19T02:35:56;100753.38;;;22.64;100.00
63808;BME280;49961;43.970;22.868;2022-08-19T02:36:56;100877.53;;;23.45;100.00
63808;BME280;49961;43.970;22.868;2022-08-19T02:37:57;100879.31;;;23.48;100.00
63808;BME280;49961;43.970;22.868;2022-08-19T02:39:15;100889.59;;;23.51;100.00
63808;BME280;49961;43.970;22.868;2022-08-19T02:40:16;100886.25;;;23.47;100.00
63808;BME280;49961;43.970;22.868;2022-08-19T02:41:21;100883.19;;;23.45;100.00
63808;BME280;49961;43.970;22.868;2022-08-19T02:42:22;100885.75;;;23.37;100.00
63808;BME280;49961;43.970;22.868;2022-08-19T02:43:23;100888.06;;;23.33;100.00
63808;BME280;49961;43.970;22.868;2022-08-19T02:44:23;100885.50;;;23.35;100.00
63808;BME280;49961;43.970;22.868;2022-08-19T02:45:24;100882.91;;;23.32;100.00
63808;BME280;49961;43.970;22.868;2022-08-19T02:46:28;100887.81;;;23.42;100.00
63808;BME280;49961;43.970;22.868;2022-08-19T02:47:29;100890.88;;;23.44;100.00
63808;BME280;49961;43.970;22.868;2022-08-19T02:48:29;100893.22;;;23.40;100.00
63808;BME280;49961;43.970;22.868;2022-08-19T02:49:32;100866.72;;;23.21;100.00
63808;BME280;49961;43.970;22.868;2022-08-19T02:50:33;100890.38;;;23.40;100.00
63808;BME280;49961;43.970;22.868;2022-08-19T02:51:44;100896.78;;;23.41;100.00
63808;BME280;49961;43.970;22.868;2022-08-19T02:52:45;100904.78;;;23.42;100.00
63808;BME280;49961;43.970;22.868;2022-08-19T02:53:46;100898.63;;;23.33;100.00
63808;BME280;49961;43.970;22.868;2022-08-19T02:54:46;100877.25;;;23.21;100.00
63808;BME280;49961;43.970;22.868;2022-08-19T02:55:47;100816.03;;;22.74;100.00
63808;BME280;49961;43.970;22.868;2022-08-19T02:56:48;100911.19;;;23.26;100.00
63808;BME280;49961;43.970;22.868;2022-08-19T02:57:49;100915.06;;;23.29;100.00
63808;BME280;49961;43.970;22.868;2022-08-19T02:58:49;100908.09;;;23.24;100.00
63808;BME280;49961;43.970;22.868;2022-08-19T02:59:50;100905.50;;;23.15;100.00
63808;BME280;49961;43.970;22.868;2022-08-19T03:00:53;100915.28;;;23.20;100.00
63808;BME280;49961;43.970;22.868;2022-08-19T03:01:54;100920.44;;;23.21;100.00
63808;BME280;49961;43.970;22.868;2022-08-19T03:02:55;100784.06;;;22.35;100.00
63808;BME280;49961;43.970;22.868;2022-08-19T03:03:57;100918.34;;;23.16;100.00
63808;BME280;49961;43.970;22.868;2022-08-19T03:04:59;100849.41;;;22.70;100.00
63808;BME280;49961;43.970;22.868;2022-08-19T03:06:11;100919.38;;;23.13;100.00
63808;BME280;49961;43.970;22.868;2022-08-19T03:07:15;100922.19;;;23.13;100.00
63808;BME280;49961;43.970;22.868;2022-08-19T03:08:16;100911.41;;;23.06;100.00
63808;BME280;49961;43.970;22.868;2022-08-19T03:09:19;100912.94;;;23.02;100.00
63808;BME280;49961;43.970;22.868;2022-08-19T03:10:19;100920.63;;;23.07;100.00
63808;BME280;49961;43.970;22.868;2022-08-19T03:11:28;100804.09;;;22.26;100.00
63808;BME280;49961;43.970;22.868;2022-08-19T03:12:29;100927.06;;;23.02;100.00
63808;BME280;49961;43.970;22.868;2022-08-19T03:13:30;100925.78;;;23.03;100.00
63808;BME280;49961;43.970;22.868;2022-08-19T03:14:31;100822.34;;;22.36;100.00
63808;BME280;49961;43.970;22.868;2022-08-19T03:15:32;100924.75;;;23.06;100.00
63808;BME280;49961;43.970;22.868;2022-08-19T03:16:39;100927.81;;;23.02;100.00
63808;BME280;49961;43.970;22.868;2022-08-19T03:17:40;100929.13;;;23.01;100.00
63808;BME280;49961;43.970;22.868;2022-08-19T03:18:41;100929.91;;;23.02;100.00
63808;BME280;49961;43.970;22.868;2022-08-19T03:19:42;100836.22;;;22.39;100.00
63808;BME280;49961;43.970;22.868;2022-08-19T03:20:46;100936.31;;;22.97;100.00
63808;BME280;49961;43.970;22.868;2022-08-19T03:21:47;100928.34;;;22.95;100.00
63808;BME280;49961;43.970;22.868;2022-08-19T03:22:48;100938.84;;;22.95;100.00
63808;BME280;49961;43.970;22.868;2022-08-19T03:23:48;100934.00;;;22.95;100.00
63808;BME280;49961;43.970;22.868;2022-08-19T03:24:49;100928.34;;;22.95;100.00
63808;BME280;49961;43.970;22.868;2022-08-19T03:25:51;100936.28;;;22.91;100.00
63808;BME280;49961;43.970;22.868;2022-08-19T03:26:54;100929.59;;;22.89;100.00
63808;BME280;49961;43.970;22.868;2022-08-19T03:27:58;100937.06;;;22.92;100.00
63808;BME280;49961;43.970;22.868;2022-08-19T03:29:02;100929.38;;;22.98;100.00
63808;BME280;49961;43.970;22.868;2022-08-19T03:30:03;100942.47;;;22.95;100.00
63808;BME280;49961;43.970;22.868;2022-08-19T03:31:08;100945.00;;;22.93;100.00
63808;BME280;49961;43.970;22.868;2022-08-19T03:32:09;100945.53;;;22.97;100.00
63808;BME280;49961;43.970;22.868;2022-08-19T03:33:10;100944.25;;;22.98;100.00
63808;BME280;49961;43.970;22.868;2022-08-19T03:34:18;100944.03;;;23.02;100.00
63808;BME280;49961;43.970;22.868;2022-08-19T03:35:20;100943.22;;;22.96;100.00
63808;BME280;49961;43.970;22.868;2022-08-19T03:36:23;100877.66;;;22.64;100.00
63808;BME280;49961;43.970;22.868;2022-08-19T03:37:23;100944.53;;;23.06;100.00
63808;BME280;49961;43.970;22.868;2022-08-19T03:38:24;100940.16;;;23.05;100.00
63808;BME280;49961;43.970;22.868;2022-08-19T03:39:25;100941.19;;;23.07;100.00
63808;BME280;49961;43.970;22.868;2022-08-19T03:40:26;100920.13;;;22.92;100.00
63808;BME280;49961;43.970;22.868;2022-08-19T03:41:36;100947.09;;;23.09;100.00
63808;BME280;49961;43.970;22.868;2022-08-19T03:42:37;100931.44;;;23.03;100.00
63808;BME280;49961;43.970;22.868;2022-08-19T03:43:40;100945.31;;;23.12;100.00
63808;BME280;49961;43.970;22.868;2022-08-19T03:44:40;100937.88;;;23.09;100.00
63808;BME280;49961;43.970;22.868;2022-08-19T03:45:42;100920.38;;;22.94;100.00
63808;BME280;49961;43.970;22.868;2022-08-19T03:46:43;100942.50;;;23.12;100.00
63808;BME280;49961;43.970;22.868;2022-08-19T03:47:43;100942.50;;;23.12;100.00
63808;BME280;49961;43.970;22.868;2022-08-19T03:48:46;100931.16;;;23.01;100.00
63808;BME280;49961;43.970;22.868;2022-08-19T03:49:47;100942.50;;;23.06;100.00
63808;BME280;49961;43.970;22.868;2022-08-19T03:50:47;100948.91;;;23.07;100.00
63808;BME280;49961;43.970;22.868;2022-08-19T03:51:48;100943.50;;;23.03;100.00
63808;BME280;49961;43.970;22.868;2022-08-19T03:52:50;100942.25;;;23.04;100.00
63808;BME280;49961;43.970;22.868;2022-08-19T03:53:53;100935.81;;;23.04;100.00
63808;BME280;49961;43.970;22.868;2022-08-19T03:54:54;100950.47;;;23.13;100.00
63808;BME280;49961;43.970;22.868;2022-08-19T03:55:55;100955.59;;;23.09;100.00
63808;BME280;49961;43.970;22.868;2022-08-19T03:56:57;100954.84;;;23.09;100.00
63808;BME280;49961;43.970;22.868;2022-08-19T03:57:57;100965.88;;;23.12;100.00
63808;BME280;49961;43.970;22.868;2022-08-19T03:58:58;100931.63;;;22.83;100.00
63808;BME280;49961;43.970;22.868;2022-08-19T04:00:00;100919.03;;;22.78;100.00
63808;BME280;49961;43.970;22.868;2022-08-19T04:01:01;100966.69;;;23.18;100.00
63808;BME280;49961;43.970;22.868;2022-08-19T04:02:07;100967.19;;;23.11;100.00
63808;BME280;49961;43.970;22.868;2022-08-19T04:03:09;100972.06;;;23.16;100.00
63808;BME280;49961;43.970;22.868;2022-08-19T04:04:09;100972.56;;;23.09;100.00
63808;BME280;49961;43.970;22.868;2022-08-19T04:05:10;100977.69;;;23.05;100.00
63808;BME280;49961;43.970;22.868;2022-08-19T04:06:35;100969.72;;;23.04;100.00
63808;BME280;49961;43.970;22.868;2022-08-19T04:07:35;100950.38;;;22.86;100.00
63808;BME280;49961;43.970;22.868;2022-08-19T04:08:36;100972.53;;;22.98;100.00
63808;BME280;49961;43.970;22.868;2022-08-19T04:09:36;100979.69;;;22.83;100.00
63808;BME280;49961;43.970;22.868;2022-08-19T04:10:37;100980.19;;;22.81;100.00
63808;BME280;49961;43.970;22.868;2022-08-19T04:11:41;100978.91;;;22.82;100.00
63808;BME280;49961;43.970;22.868;2022-08-19T04:12:42;100974.78;;;22.83;100.00
63808;BME280;49961;43.970;22.868;2022-08-19T04:13:43;100976.56;;;22.81;100.00
63808;BME280;49961;43.970;22.868;2022-08-19T04:14:44;100984.03;;;22.84;100.00
63808;BME280;49961;43.970;22.868;2022-08-19T04:15:45;100980.97;;;22.82;100.00
63808;BME280;49961;43.970;22.868;2022-08-19T04:16:48;100983.25;;;22.78;100.00
63808;BME280;49961;43.970;22.868;2022-08-19T04:17:48;100990.19;;;22.82;100.00
63808;BME280;49961;43.970;22.868;2022-08-19T04:18:49;100953.09;;;22.53;100.00
63808;BME280;49961;43.970;22.868;2022-08-19T04:19:50;100991.97;;;22.80;100.00
63808;BME280;49961;43.970;22.868;2022-08-19T04:20:50;101003.56;;;22.82;100.00
63808;BME280;49961;43.970;22.868;2022-08-19T04:21:52;100995.84;;;22.82;100.00
63808;BME280;49961;43.970;22.868;2022-08-19T04:22:53;101006.41;;;22.82;100.00
63808;BME280;49961;43.970;22.868;2022-08-19T04:23:55;100988.91;;;22.78;100.00
63808;BME280;49961;43.970;22.868;2022-08-19T04:24:56;100993.28;;;22.79;100.00
63808;BME280;49961;43.970;22.868;2022-08-19T04:25:57;101016.94;;;22.92;100.00
63808;BME280;49961;43.970;22.868;2022-08-19T04:27:00;100999.78;;;23.01;100.00
63808;BME280;49961;43.970;22.868;2022-08-19T04:28:00;100973.78;;;22.86;100.00
63808;BME280;49961;43.970;22.868;2022-08-19T04:29:05;100890.41;;;22.43;100.00
63808;BME280;49961;43.970;22.868;2022-08-19T04:30:06;100928.25;;;22.68;100.00
63808;BME280;49961;43.970;22.868;2022-08-19T04:31:13;100991.06;;;23.10;100.00
63808;BME280;49961;43.970;22.868;2022-08-19T04:32:14;100996.97;;;23.12;100.00
63808;BME280;49961;43.970;22.868;2022-08-19T04:33:18;100994.94;;;23.13;100.00
63808;BME280;49961;43.970;22.868;2022-08-19T04:34:22;100995.97;;;23.15;100.00
63808;BME280;49961;43.970;22.868;2022-08-19T04:35:23;101002.09;;;23.08;100.00
63808;BME280;49961;43.970;22.868;2022-08-19T04:36:27;100998.78;;;23.10;100.00
63808;BME280;49961;43.970;22.868;2022-08-19T04:37:28;101006.25;;;23.13;100.00
63808;BME280;49961;43.970;22.868;2022-08-19T04:38:31;100999.81;;;23.12;100.00
63808;BME280;49961;43.970;22.868;2022-08-19T04:39:33;100998.53;;;23.13;100.00
63808;BME280;49961;43.970;22.868;2022-08-19T04:40:52;101006.31;;;23.24;100.00
63808;BME280;49961;43.970;22.868;2022-08-19T04:42:11;100994.50;;;23.25;100.00
63808;BME280;49961;43.970;22.868;2022-08-19T04:43:31;100928.59;;;22.92;100.00
63808;BME280;49961;43.970;22.868;2022-08-19T04:44:33;101007.63;;;23.50;100.00
63808;BME280;49961;43.970;22.868;2022-08-19T04:45:36;101011.25;;;23.56;100.00
63808;BME280;49961;43.970;22.868;2022-08-19T04:46:36;101005.59;;;23.62;100.00
63808;BME280;49961;43.970;22.868;2022-08-19T04:47:38;100945.13;;;23.26;100.00
63808;BME280;49961;43.970;22.868;2022-08-19T04:48:39;101005.34;;;23.71;100.00
63808;BME280;49961;43.970;22.868;2022-08-19T04:49:40;101006.63;;;23.75;100.00
63808;BME280;49961;43.970;22.868;2022-08-19T04:50:43;100883.13;;;23.06;100.00
63808;BME280;49961;43.970;22.868;2022-08-19T04:51:46;101012.31;;;23.92;100.00
63808;BME280;49961;43.970;22.868;2022-08-19T04:52:50;101001.25;;;23.94;100.00
63808;BME280;49961;43.970;22.868;2022-08-19T04:53:52;100999.72;;;23.98;100.00
63808;BME280;49961;43.970;22.868;2022-08-19T04:54:52;100992.50;;;23.92;100.00
63808;BME280;49961;43.970;22.868;2022-08-19T04:55:56;100999.69;;;23.93;100.00
63808;BME280;49961;43.970;22.868;2022-08-19T04:56:57;101001.78;;;23.92;100.00
63808;BME280;49961;43.970;22.868;2022-08-19T04:57:58;100997.13;;;23.89;100.00
63808;BME280;49961;43.970;22.868;2022-08-19T04:58:58;100876.22;;;23.13;100.00
63808;BME280;49961;43.970;22.868;2022-08-19T05:00:03;101006.91;;;23.94;100.00
63808;BME280;49961;43.970;22.868;2022-08-19T05:01:04;101003.03;;;23.97;100.00
63808;BME280;49961;43.970;22.868;2022-08-19T05:02:07;101013.84;;;23.93;100.00
63808;BME280;49961;43.970;22.868;2022-08-19T05:03:08;101023.41;;;23.90;100.00
63808;BME280;49961;43.970;22.868;2022-08-19T05:04:09;101015.16;;;23.92;100.00
63808;BME280;49961;43.970;22.868;2022-08-19T05:05:09;100998.16;;;23.86;100.00
63808;BME280;49961;43.970;22.868;2022-08-19T05:06:12;100892.69;;;23.20;100.00
63808;BME280;49961;43.970;22.868;2022-08-19T05:07:13;101014.63;;;23.99;100.00
63808;BME280;49961;43.970;22.868;2022-08-19T05:08:17;101000.22;;;23.97;100.00
63808;BME280;49961;43.970;22.868;2022-08-19T05:09:20;101007.41;;;23.98;100.00
63808;BME280;49961;43.970;22.868;2022-08-19T05:10:21;101006.13;;;24.04;100.00
63808;BME280;49961;43.970;22.868;2022-08-19T05:11:31;101002.78;;;24.11;100.00
63808;BME280;49961;43.970;22.868;2022-08-19T05:12:31;100863.88;;;23.27;100.00
63808;BME280;49961;43.970;22.868;2022-08-19T05:13:32;100907.84;;;23.44;100.00
63808;BME280;49961;43.970;22.868;2022-08-19T05:14:32;100944.88;;;23.68;100.00
63808;BME280;49961;43.970;22.868;2022-08-19T05:15:33;100973.47;;;23.92;100.00
63808;BME280;49961;43.970;22.868;2022-08-19T05:16:35;100983.47;;;23.99;100.00
63808;BME280;49961;43.970;22.868;2022-08-19T05:17:35;100999.69;;;24.09;100.00